Time;durP1;ratioP1;P1;durP2;ratioP2;P2;SDS_P1;SDS_P2;PMS_P1;PMS_P2;Temp;Humidity;BMP_temperature;BMP_pressure;BME280_temperature;BME280_humidity;BME280_pressure;Samples;Min_cycle;Max_cycle;Signal;HPM_P1;HPM_P2
2023/01/13 00:01:21;;;;;;;25.70;6.88;;;9.00;99.90;;;;;;5006931;28;20053;-70
2023/01/13 00:03:47;;;;;;;24.33;7.90;;;9.00;99.90;;;;;;5006796;28;20088;-70
2023/01/13 00:06:16;;;;;;;32.75;7.95;;;9.00;99.90;;;;;;5006803;28;20041;-70
2023/01/13 00:08:41;;;;;;;;;;;9.00;99.90;;;;;;5006675;28;20050;-70
2023/01/13 00:11:08;;;;;;;34.67;7.75;;;8.90;99.90;;;;;;5006821;28;19925;-70
2023/01/13 00:13:34;;;;;;;24.33;6.20;;;8.80;99.90;;;;;;4993010;28;20521;-70
2023/01/13 00:16:04;;;;;;;28.88;7.00;;;8.80;99.90;;;;;;5009648;28;20121;-70
2023/01/13 00:18:31;;;;;;;33.58;7.25;;;8.70;99.90;;;;;;4993442;28;20076;-70
2023/01/13 00:21:18;;;;;;;36.83;7.32;;;8.70;99.90;;;;;;5009791;28;20049;-70
2023/01/13 00:23:45;;;;;;;27.70;7.07;;;8.80;99.90;;;;;;5009669;28;21021;-70
2023/01/13 00:26:14;;;;;;;31.65;6.15;;;8.60;99.90;;;;;;5009372;28;20619;-70
2023/01/13 00:28:39;;;;;;;34.03;8.82;;;8.60;99.90;;;;;;5010277;28;20038;-70
2023/01/13 00:31:07;;;;;;;26.67;6.90;;;8.60;99.90;;;;;;4992722;28;20087;-70
2023/01/13 00:33:34;;;;;;;40.57;9.37;;;8.50;99.90;;;;;;5009312;28;20045;-70
2023/01/13 00:36:01;;;;;;;37.05;9.52;;;8.50;99.90;;;;;;5009848;28;20045;-70
2023/01/13 00:38:27;;;;;;;33.65;8.02;;;8.50;99.90;;;;;;4991597;28;20050;-70
2023/01/13 00:41:09;;;;;;;41.58;9.70;;;8.50;99.90;;;;;;4986331;28;20056;-70
2023/01/13 00:43:36;;;;;;;39.20;10.15;;;8.40;99.90;;;;;;5008722;28;20055;-70
2023/01/13 00:46:03;;;;;;;49.15;9.85;;;8.40;99.90;;;;;;5009921;28;20096;-70
2023/01/13 00:48:29;;;;;;;36.40;9.70;;;8.40;99.90;;;;;;5009947;28;20108;-70
2023/01/13 00:51:09;;;;;;;41.05;10.77;;;8.30;99.90;;;;;;5008974;28;20054;-70
2023/01/13 00:53:37;;;;;;;26.17;9.93;;;8.30;99.90;;;;;;5009321;28;20058;-70
2023/01/13 00:56:08;;;;;;;36.53;10.05;;;8.30;99.90;;;;;;4991796;28;20053;-70
2023/01/13 00:58:34;;;;;;;42.42;12.38;;;8.20;99.90;;;;;;4991993;28;20054;-70
2023/01/13 01:01:03;;;;;;;46.92;11.18;;;8.20;99.90;;;;;;4991474;28;20054;-70
2023/01/13 01:03:29;;;;;;;37.53;9.98;;;8.20;99.90;;;;;;4991791;28;20125;-70
2023/01/13 01:06:02;;;;;;;59.45;11.98;;;8.10;99.90;;;;;;5008929;28;20137;-70
2023/01/13 01:08:28;;;;;;;37.55;9.25;;;8.10;99.90;;;;;;5009898;28;20046;-70
2023/01/13 01:11:24;;;;;;;45.80;11.10;;;8.10;99.90;;;;;;5008676;28;20065;-70
2023/01/13 01:13:51;;;;;;;35.17;10.75;;;8.00;99.90;;;;;;4996059;28;20058;-70
2023/01/13 01:16:19;;;;;;;39.60;10.13;;;8.00;99.90;;;;;;5008701;28;20049;-70
2023/01/13 01:18:46;;;;;;;39.63;10.02;;;7.90;99.90;;;;;;4990134;28;20056;-70
2023/01/13 01:21:13;;;;;;;43.25;10.25;;;7.90;99.90;;;;;;5008789;28;20058;-70
2023/01/13 01:23:40;;;;;;;40.17;10.02;;;7.80;99.90;;;;;;4991608;28;20057;-70
2023/01/13 01:26:07;;;;;;;46.70;9.77;;;7.90;99.90;;;;;;5001234;28;20081;-70
2023/01/13 01:28:33;;;;;;;37.70;9.65;;;7.90;99.90;;;;;;5008576;28;20581;-70
2023/01/13 01:30:59;;;;;;;41.42;10.57;;;7.90;99.90;;;;;;4991905;28;20052;-70
2023/01/13 01:33:25;;;;;;;34.13;8.70;;;7.90;99.90;;;;;;4990666;28;20137;-70
2023/01/13 01:35:52;;;;;;;36.22;8.27;;;7.90;99.90;;;;;;5006986;28;20545;-70
2023/01/13 01:38:20;;;;;;;35.40;8.65;;;8.00;99.90;;;;;;4990884;28;20483;-70
2023/01/13 01:40:45;;;;;;;39.30;8.43;;;8.00;99.90;;;;;;5007835;28;20085;-70
2023/01/13 01:46:03;;;;;;;38.50;9.00;;;7.90;99.90;;;;;;4990522;28;20511;-70
2023/01/13 01:48:38;;;;;;;37.35;7.65;;;7.90;99.90;;;;;;4990470;28;20396;-70
2023/01/13 01:51:07;;;;;;;26.92;7.95;;;7.90;99.90;;;;;;5008476;28;20081;-70
2023/01/13 01:53:33;;;;;;;30.02;7.45;;;7.90;99.90;;;;;;5008427;28;20046;-70
2023/01/13 01:56:00;;;;;;;30.52;8.00;;;7.90;99.90;;;;;;5005718;28;20526;-70
2023/01/13 01:58:44;;;;;;;42.92;8.25;;;7.80;99.90;;;;;;4990949;28;20531;-70
2023/01/13 02:01:11;;;;;;;31.15;9.23;;;7.90;99.90;;;;;;4990954;28;20602;-70
2023/01/13 02:03:40;;;;;;;35.30;9.30;;;7.90;99.90;;;;;;4974051;28;20042;-70
2023/01/13 02:06:07;;;;;;;36.63;9.38;;;7.90;99.90;;;;;;4979439;28;20046;-70
2023/01/13 02:08:33;;;;;;;28.13;7.05;;;7.90;99.90;;;;;;5005515;28;20581;-70
2023/01/13 02:10:59;;;;;;;32.85;8.90;;;7.80;99.90;;;;;;5004622;28;20053;-70
2023/01/13 02:13:24;;;;;;;33.97;9.27;;;7.80;99.90;;;;;;4960950;28;20423;-70
2023/01/13 02:16:07;;;;;;;37.72;10.30;;;7.80;99.90;;;;;;5008024;28;20081;-71
2023/01/13 02:18:42;;;;;;;30.52;7.82;;;7.80;99.90;;;;;;4990546;28;20172;-70
2023/01/13 02:21:22;;;;;;;28.00;8.50;;;7.80;99.90;;;;;;5008474;28;20046;-70
2023/01/13 02:27:23;;;;;;;55.60;9.75;;;7.70;99.90;;;;;;4988116;28;20120;-70
2023/01/13 02:33:30;;;;;;;39.05;9.27;;;7.70;99.90;;;;;;5006100;28;20560;-70
2023/01/13 02:36:09;;;;;;;42.10;8.18;;;7.70;99.90;;;;;;5010554;28;20042;-70
2023/01/13 02:39:04;;;;;;;41.25;10.45;;;7.60;99.90;;;;;;4998536;28;20091;-70
2023/01/13 02:44:46;;;;;;;31.52;9.10;;;7.70;99.90;;;;;;4988802;28;20089;-71
2023/01/13 02:47:25;;;;;;;44.95;9.35;;;7.60;99.90;;;;;;5000583;28;20054;-71
2023/01/13 02:50:00;;;;;;;36.80;8.93;;;7.60;99.90;;;;;;4994792;28;20518;-70
2023/01/13 02:52:39;;;;;;;59.05;11.55;;;7.60;99.90;;;;;;5007151;28;20068;-70
2023/01/13 02:55:27;;;;;;;39.83;8.60;;;7.50;99.90;;;;;;5007346;28;20411;-70
2023/01/13 02:57:57;;;;;;;35.20;9.70;;;7.50;99.90;;;;;;4974917;28;20128;-70
2023/01/13 03:00:23;;;;;;;33.78;8.38;;;7.50;99.90;;;;;;5007670;28;20491;-70
2023/01/13 03:02:49;;;;;;;38.03;10.25;;;7.50;99.90;;;;;;5005918;28;20542;-70
2023/01/13 03:05:16;;;;;;;50.78;10.85;;;7.50;99.90;;;;;;4977062;28;20108;-70
2023/01/13 03:07:54;;;;;;;34.47;9.98;;;7.50;99.90;;;;;;5007420;28;20789;-70
2023/01/13 03:10:48;;;;;;;41.88;9.65;;;7.50;99.90;;;;;;4980222;28;20050;-71
2023/01/13 03:13:33;;;;;;;34.03;9.57;;;7.50;99.90;;;;;;5007310;28;20476;-70
2023/01/13 03:16:17;;;;;;;30.25;9.70;;;7.50;99.90;;;;;;5007278;28;20056;-70
2023/01/13 03:18:58;;;;;;;40.50;9.30;;;7.50;99.90;;;;;;4988775;28;20057;-70
2023/01/13 03:21:55;;;;;;;57.65;10.90;;;7.50;99.90;;;;;;5007036;28;20058;-70
2023/01/13 03:24:41;;;;;;;48.53;10.90;;;7.50;99.90;;;;;;4972631;28;20088;-70
2023/01/13 03:27:19;;;;;;;40.15;10.07;;;7.50;99.90;;;;;;5005810;28;20038;-70
2023/01/13 03:29:51;;;;;;;31.60;9.25;;;7.50;99.90;;;;;;4998972;28;20053;-70
2023/01/13 03:32:23;;;;;;;33.50;7.30;;;7.50;99.90;;;;;;4989731;28;20046;-70
2023/01/13 03:35:15;;;;;;;36.45;9.52;;;7.50;99.90;;;;;;4989031;28;20060;-70
2023/01/13 03:37:46;;;;;;;36.15;9.65;;;7.50;99.90;;;;;;4982812;28;20062;-70
2023/01/13 03:40:14;;;;;;;36.83;9.45;;;7.50;99.90;;;;;;4988011;28;20062;-70
2023/01/13 03:44:20;;;;;;;50.78;9.65;;;7.50;99.90;;;;;;4984475;28;20149;-70
2023/01/13 03:45:31;;;;;;;28.98;8.93;;;7.50;99.90;;;;;;4983052;28;20066;-70
2023/01/13 03:48:00;;;;;;;39.10;9.80;;;7.50;99.90;;;;;;4976414;28;20054;-70
2023/01/13 03:50:36;;;;;;;36.28;9.98;;;7.50;99.90;;;;;;4991360;28;20061;-70
2023/01/13 03:53:10;;;;;;;31.83;9.38;;;7.50;99.90;;;;;;4987979;28;20038;-70
2023/01/13 03:55:50;;;;;;;32.30;9.07;;;7.40;99.90;;;;;;4990212;28;20050;-70
2023/01/13 03:58:34;;;;;;;46.35;9.48;;;7.50;99.90;;;;;;4990600;28;20547;-71
2023/01/13 04:01:30;;;;;;;46.70;10.85;;;7.60;99.90;;;;;;4991009;28;20042;-70
2023/01/13 04:04:15;;;;;;;35.22;8.52;;;7.50;99.90;;;;;;4990919;28;20411;-70
2023/01/13 04:07:03;;;;;;;41.90;8.98;;;7.50;99.90;;;;;;4990229;28;20377;-71
2023/01/13 04:09:43;;;;;;;29.13;9.50;;;7.50;99.90;;;;;;4989680;28;20054;-71
2023/01/13 04:12:24;;;;;;;49.75;11.38;;;7.50;99.90;;;;;;4990685;28;20042;-70
2023/01/13 04:14:51;;;;;;;43.67;9.90;;;7.50;99.90;;;;;;4977225;28;20213;-70
2023/01/13 04:17:17;;;;;;;30.50;9.50;;;7.50;99.90;;;;;;4991109;28;20058;-70
2023/01/13 04:19:43;;;;;;;48.00;11.18;;;7.60;99.90;;;;;;4990831;28;20073;-70
2023/01/13 04:22:09;;;;;;;42.58;8.98;;;7.60;99.90;;;;;;4985153;28;20488;-70
2023/01/13 04:24:36;;;;;;;37.85;9.88;;;7.60;99.90;;;;;;4987940;28;20053;-70
2023/01/13 04:27:02;;;;;;;55.40;9.68;;;7.60;99.90;;;;;;4983178;28;20781;-71
2023/01/13 04:29:28;;;;;;;46.17;9.85;;;7.60;99.90;;;;;;4981693;28;20053;-70
2023/01/13 04:31:53;;;;;;;48.53;11.18;;;7.60;99.90;;;;;;4990264;28;20046;-70
2023/01/13 04:34:19;;;;;;;36.50;9.77;;;7.60;99.90;;;;;;4989307;28;20046;-70
2023/01/13 04:36:45;;;;;;;38.53;9.95;;;7.60;99.90;;;;;;4992110;28;20232;-70
2023/01/13 04:39:10;;;;;;;31.45;9.02;;;7.60;99.90;;;;;;5010558;28;20131;-70
2023/01/13 04:44:20;;;;;;;49.08;10.32;;;7.60;99.90;;;;;;4985777;28;20085;-70
2023/01/13 04:46:46;;;;;;;44.33;11.10;;;7.60;99.90;;;;;;5003138;28;20467;-70
2023/01/13 04:49:12;;;;;;;36.20;8.38;;;7.60;99.90;;;;;;5009821;28;20565;-70
2023/01/13 04:51:39;;;;;;;39.67;10.02;;;7.60;99.90;;;;;;5009805;28;20057;-70
2023/01/13 04:54:04;;;;;;;37.58;9.73;;;7.60;99.90;;;;;;4992761;28;20089;-70
2023/01/13 04:56:31;;;;;;;43.05;9.48;;;7.60;99.90;;;;;;4991764;28;20136;-70
2023/01/13 04:58:57;;;;;;;35.85;10.95;;;7.60;99.90;;;;;;5009411;28;20077;-70
2023/01/13 05:01:22;;;;;;;40.83;10.07;;;7.60;99.90;;;;;;4991095;28;20610;-71
2023/01/13 05:03:49;;;;;;;39.30;10.75;;;7.60;99.90;;;;;;5008460;28;20404;-71
2023/01/13 05:06:15;;;;;;;50.53;10.75;;;7.60;99.90;;;;;;5008022;28;20294;-70
2023/01/13 05:08:40;;;;;;;39.95;10.30;;;7.60;99.90;;;;;;5009407;28;20442;-70
2023/01/13 05:16:58;;;;;;;37.63;10.18;;;7.50;99.90;;;;;;5009456;28;20061;-70
2023/01/13 05:19:20;;;;;;;46.58;10.27;;;7.50;99.90;;;;;;5009540;28;20431;-70
2023/01/13 05:27:14;;;;;;;36.70;9.18;;;7.50;99.90;;;;;;4978331;28;20061;-70
2023/01/13 05:29:40;;;;;;;34.60;9.32;;;7.50;99.90;;;;;;5009327;28;20049;-70
2023/01/13 05:32:07;;;;;;;39.90;9.68;;;7.50;99.90;;;;;;5007867;28;20539;-71
2023/01/13 05:34:33;;;;;;;42.10;10.75;;;7.50;99.90;;;;;;5007705;28;20053;-70
2023/01/13 05:36:59;;;;;;;45.60;10.30;;;7.60;99.90;;;;;;4990704;28;20495;-71
2023/01/13 05:39:26;;;;;;;43.30;9.13;;;7.50;99.90;;;;;;5008219;28;20411;-70
2023/01/13 05:44:36;;;;;;;22.48;7.93;;;7.60;99.90;;;;;;5008828;28;20045;-70
2023/01/13 05:47:02;;;;;;;36.70;9.50;;;7.50;99.90;;;;;;5003995;28;20096;-71
2023/01/13 05:49:27;;;;;;;37.08;8.63;;;7.50;99.90;;;;;;5008956;28;20668;-71
2023/01/13 05:51:53;;;;;;;31.98;8.32;;;7.50;99.90;;;;;;5005499;28;20065;-71
2023/01/13 05:54:19;;;;;;;56.13;10.52;;;7.40;99.90;;;;;;5003501;28;20034;-71
2023/01/13 05:56:45;;;;;;;32.88;8.65;;;7.50;99.90;;;;;;4984096;28;20049;-71
2023/01/13 05:59:11;;;;;;;28.65;7.40;;;7.50;99.90;;;;;;5008725;28;20097;-71
2023/01/13 06:01:37;;;;;;;36.83;7.90;;;7.50;99.90;;;;;;4998161;28;20499;-71
2023/01/13 06:04:02;;;;;;;33.65;7.85;;;7.50;99.90;;;;;;5008036;28;20124;-71
2023/01/13 06:06:28;;;;;;;28.92;7.00;;;7.40;99.90;;;;;;4990471;28;20180;-71
2023/01/13 06:08:53;;;;;;;37.38;9.02;;;7.40;99.90;;;;;;4990393;28;20042;-71
2023/01/13 06:11:19;;;;;;;33.35;8.13;;;7.50;99.90;;;;;;5007447;28;20050;-70
2023/01/13 06:13:45;;;;;;;44.78;8.98;;;7.40;99.90;;;;;;4985436;28;20075;-71
2023/01/13 06:16:10;;;;;;;32.15;9.07;;;7.50;99.90;;;;;;5001565;28;20050;-71
2023/01/13 06:18:36;;;;;;;30.05;7.18;;;7.50;99.90;;;;;;5007025;28;20046;-71
2023/01/13 06:21:02;;;;;;;46.15;9.10;;;7.50;99.90;;;;;;4987380;28;20110;-71
2023/01/13 06:23:28;;;;;;;29.30;7.25;;;7.50;99.90;;;;;;4989922;28;20054;-70
2023/01/13 06:26:14;;;;;;;32.95;7.38;;;7.50;99.90;;;;;;5006950;28;20121;-70
2023/01/13 06:28:40;;;;;;;24.23;7.82;;;7.60;99.90;;;;;;5007788;28;20095;-71
2023/01/13 06:31:07;;;;;;;28.50;8.02;;;7.50;99.90;;;;;;5006859;28;20050;-70
2023/01/13 06:33:46;;;;;;;26.63;8.10;;;7.60;99.90;;;;;;5104524;27;20411;-71
2023/01/13 06:36:21;;;;;;;27.67;8.38;;;7.60;99.90;;;;;;5085629;28;20119;-70
2023/01/13 06:38:50;;;;;;;30.40;8.35;;;7.60;99.90;;;;;;5092577;28;20039;-71
2023/01/13 06:43:13;;;;;;;25.10;8.00;;;7.60;99.90;;;;;;5086204;28;20044;-70
2023/01/13 06:44:03;;;;;;;28.77;8.70;;;7.70;99.90;;;;;;5079687;28;20040;-70
2023/01/13 06:46:29;;;;;;;31.23;8.57;;;7.70;99.90;;;;;;5086202;28;20051;-70
2023/01/13 06:48:55;;;;;;;32.38;8.15;;;7.70;99.90;;;;;;5084706;28;20056;-70
2023/01/13 06:51:21;;;;;;;20.88;8.05;;;7.70;99.90;;;;;;5084095;28;20046;-70
2023/01/13 06:53:47;;;;;;;38.00;8.23;;;7.70;99.90;;;;;;5089373;28;20048;-70
2023/01/13 06:56:13;;;;;;;28.73;8.93;;;7.70;99.90;;;;;;5097970;28;20117;-69
2023/01/13 06:58:38;;;;;;;22.05;7.70;;;7.70;99.90;;;;;;5066781;28;20036;-70
2023/01/13 07:01:04;;;;;;;28.73;7.65;;;7.70;99.90;;;;;;5082114;28;20137;-70
2023/01/13 07:03:30;;;;;;;21.23;6.63;;;7.70;99.90;;;;;;5083872;28;20041;-70
2023/01/13 07:05:55;;;;;;;19.50;6.90;;;7.70;99.90;;;;;;5083803;28;20052;-70
2023/01/13 07:08:22;;;;;;;29.70;8.07;;;7.70;99.90;;;;;;5083154;28;20040;-70
2023/01/13 07:10:48;;;;;;;19.33;5.80;;;7.70;99.90;;;;;;5082112;28;20772;-69
2023/01/13 07:16:01;;;;;;;19.58;5.90;;;7.70;99.90;;;;;;5067962;28;20134;-69
2023/01/13 07:18:30;;;;;;;21.92;5.75;;;7.70;99.90;;;;;;5075697;28;20116;-70
2023/01/13 07:21:04;;;;;;;16.63;6.30;;;7.70;99.90;;;;;;5072154;28;20476;-70
2023/01/13 07:23:34;;;;;;;34.67;7.22;;;7.70;99.90;;;;;;5072593;28;20048;-70
2023/01/13 07:26:00;;;;;;;24.55;5.55;;;7.70;99.90;;;;;;5073122;28;20505;-70
2023/01/13 07:28:27;;;;;;;29.85;6.47;;;7.70;99.90;;;;;;5071302;28;20044;-70
2023/01/13 07:30:54;;;;;;;21.13;6.78;;;7.70;99.90;;;;;;5074800;28;20075;-70
2023/01/13 07:33:20;;;;;;;15.55;5.32;;;7.70;99.90;;;;;;5080386;28;20060;-70
2023/01/13 07:35:47;;;;;;;20.88;6.93;;;7.70;99.90;;;;;;5089695;28;20055;-70
2023/01/13 07:38:13;;;;;;;20.20;5.82;;;7.70;99.90;;;;;;5090152;28;20048;-70
2023/01/13 07:40:39;;;;;;;20.95;6.45;;;7.60;99.90;;;;;;5092018;28;20115;-70
2023/01/13 07:45:56;;;;;;;21.10;6.05;;;7.60;99.90;;;;;;5063248;28;20501;-70
2023/01/13 07:48:22;;;;;;;26.75;6.18;;;7.60;99.90;;;;;;5078232;28;20045;-70
2023/01/13 07:50:48;;;;;;;16.08;6.07;;;7.60;99.90;;;;;;5076800;28;20065;-70
2023/01/13 07:53:14;;;;;;;29.73;5.47;;;7.50;99.90;;;;;;5081050;28;20048;-70
2023/01/13 07:55:41;;;;;;;20.80;6.25;;;7.50;99.90;;;;;;5068965;28;20056;-70
2023/01/13 07:58:08;;;;;;;20.83;5.63;;;7.50;99.90;;;;;;5067607;28;20090;-70
2023/01/13 08:00:34;;;;;;;21.38;6.22;;;7.40;99.90;;;;;;5050516;28;20054;-70
2023/01/13 08:03:01;;;;;;;21.38;5.85;;;7.40;99.90;;;;;;5069014;28;20076;-69
2023/01/13 08:05:27;;;;;;;25.73;5.63;;;7.40;99.90;;;;;;5050650;28;20772;-70
2023/01/13 08:07:52;;;;;;;21.58;7.07;;;7.40;99.90;;;;;;5068551;28;20048;-70
2023/01/13 08:10:18;;;;;;;27.35;5.07;;;7.30;99.90;;;;;;5068247;28;20043;-70
2023/01/13 08:15:31;;;;;;;30.02;6.68;;;7.30;99.90;;;;;;5058125;28;20048;-70
2023/01/13 08:17:58;;;;;;;19.95;5.82;;;7.30;99.90;;;;;;5068325;28;20048;-70
2023/01/13 08:20:24;;;;;;;32.47;6.15;;;7.30;99.90;;;;;;5066255;28;20041;-70
2023/01/13 08:22:50;;;;;;;21.67;5.75;;;7.30;99.90;;;;;;5067458;28;20489;-70
2023/01/13 08:25:16;;;;;;;30.85;6.38;;;7.30;99.90;;;;;;5065210;28;20055;-70
2023/01/13 08:27:42;;;;;;;29.15;6.07;;;7.30;99.90;;;;;;5065460;28;20128;-70
2023/01/13 08:30:08;;;;;;;25.88;7.05;;;7.30;99.90;;;;;;5064617;28;20150;-70
2023/01/13 08:32:34;;;;;;;24.38;6.60;;;7.20;99.90;;;;;;5056768;28;20146;-70
2023/01/13 08:35:00;;;;;;;23.73;6.10;;;7.20;99.90;;;;;;5067017;28;20131;-70
2023/01/13 08:37:25;;;;;;;29.25;6.82;;;7.30;99.90;;;;;;5063191;28;20189;-70
2023/01/13 08:39:51;;;;;;;24.38;7.07;;;7.20;99.90;;;;;;5051453;28;20063;-70
2023/01/13 08:42:16;;;;;;;25.58;6.50;;;7.30;99.90;;;;;;5055055;28;20396;-70
2023/01/13 08:44:42;;;;;;;24.73;6.32;;;7.30;99.90;;;;;;5086200;28;20044;-70
2023/01/13 08:47:08;;;;;;;19.52;5.50;;;7.30;99.90;;;;;;5063141;28;20120;-70
2023/01/13 08:49:33;;;;;;;26.90;7.78;;;7.20;99.90;;;;;;5069864;28;20052;-71
2023/01/13 08:52:00;;;;;;;23.75;6.43;;;7.30;99.90;;;;;;5056183;28;20043;-71
2023/01/13 08:54:26;;;;;;;27.27;6.40;;;7.30;99.90;;;;;;5076796;28;20114;-70
2023/01/13 08:56:51;;;;;;;27.85;7.38;;;7.30;99.90;;;;;;5067490;28;20512;-70
2023/01/13 08:59:19;;;;;;;39.22;7.25;;;7.30;99.90;;;;;;5065450;28;20131;-70
2023/01/13 09:01:45;;;;;;;18.52;5.43;;;7.30;99.90;;;;;;5064597;28;20039;-70
2023/01/13 09:04:18;;;;;;;31.58;6.15;;;7.30;99.90;;;;;;5057861;28;20106;-70
2023/01/13 09:06:44;;;;;;;21.80;6.32;;;7.30;99.90;;;;;;5065745;28;20058;-70
2023/01/13 09:09:11;;;;;;;25.33;7.40;;;7.30;99.90;;;;;;5074131;28;20052;-70
2023/01/13 09:14:28;;;;;;;28.48;6.05;;;7.30;99.90;;;;;;5075070;28;20056;-70
2023/01/13 09:16:53;;;;;;;;;;;7.30;99.90;;;;;;5065205;28;20091;-70
2023/01/13 09:19:19;;;;;;;22.90;7.10;;;7.30;99.90;;;;;;5065274;28;19972;-70
2023/01/13 09:21:44;;;;;;;22.88;6.68;;;7.30;99.90;;;;;;5065450;28;20040;-70
2023/01/13 09:24:10;;;;;;;33.15;6.53;;;7.30;99.90;;;;;;5060764;28;20049;-70
2023/01/13 09:26:36;;;;;;;35.35;7.47;;;7.30;99.90;;;;;;5055240;28;20559;-70
2023/01/13 09:29:02;;;;;;;24.55;6.85;;;7.30;99.90;;;;;;5053285;28;20123;-70
2023/01/13 09:31:28;;;;;;;28.30;7.10;;;7.30;99.90;;;;;;5064147;28;20122;-70
2023/01/13 09:36:40;;;;;;;23.17;6.57;;;7.40;99.90;;;;;;5059596;28;20057;-70
2023/01/13 09:39:05;;;;;;;53.88;8.57;;;7.40;99.90;;;;;;5064905;28;20512;-70
2023/01/13 09:44:49;;;;;;;26.48;6.57;;;7.40;99.90;;;;;;5062803;28;20064;-70
2023/01/13 09:47:34;;;;;;;35.70;8.70;;;7.40;99.90;;;;;;5066520;28;20102;-70
2023/01/13 09:50:38;;;;;;;27.15;7.85;;;7.40;99.90;;;;;;5068067;28;20101;-70
2023/01/13 09:53:12;;;;;;;34.78;7.70;;;7.40;99.90;;;;;;5066334;28;20044;-70
2023/01/13 09:55:38;;;;;;;28.75;8.02;;;7.40;99.90;;;;;;5064693;28;20537;-71
2023/01/13 09:58:13;;;;;;;39.47;9.70;;;7.40;99.90;;;;;;5067837;28;20115;-70
2023/01/13 10:00:49;;;;;;;27.25;7.20;;;7.50;99.90;;;;;;5074395;28;20044;-71
2023/01/13 10:03:26;;;;;;;34.53;8.27;;;7.40;99.90;;;;;;5072231;28;20043;-71
2023/01/13 10:06:16;;;;;;;26.00;7.50;;;7.50;99.90;;;;;;5074961;28;20127;-71
2023/01/13 10:08:44;;;;;;;28.77;6.95;;;7.50;99.90;;;;;;5060296;28;20084;-70
2023/01/13 10:14:29;;;;;;;36.15;8.15;;;7.50;99.90;;;;;;5065240;28;20084;-70
2023/01/13 10:17:20;;;;;;;28.88;7.25;;;7.50;99.90;;;;;;5064658;28;20420;-70
2023/01/13 10:19:56;;;;;;;24.45;7.53;;;7.50;99.90;;;;;;5059728;28;20417;-70
2023/01/13 10:22:40;;;;;;;44.38;7.60;;;7.50;99.90;;;;;;5058195;28;20079;-70
2023/01/13 10:25:27;;;;;;;36.67;8.35;;;7.50;99.90;;;;;;5055930;28;20123;-70
2023/01/13 10:27:55;;;;;;;31.65;7.68;;;7.60;99.90;;;;;;5059135;28;20634;-71
2023/01/13 10:30:43;;;;;;;33.85;7.90;;;7.60;99.90;;;;;;5058593;28;20489;-72
2023/01/13 10:33:17;;;;;;;29.63;7.78;;;7.60;99.90;;;;;;5069509;28;20047;-71
2023/01/13 10:36:16;;;;;;;29.95;9.10;;;7.60;99.90;;;;;;5058972;28;20119;-70
2023/01/13 10:38:42;;;;;;;40.80;8.98;;;7.60;99.90;;;;;;5064487;28;20068;-70
2023/01/13 10:41:22;;;;;;;29.60;8.55;;;7.60;99.90;;;;;;5055811;28;20052;-71
2023/01/13 10:43:50;;;;;;;25.63;6.97;;;7.60;99.90;;;;;;5051216;28;20505;-71
2023/01/13 10:46:17;;;;;;;21.85;7.30;;;7.50;99.90;;;;;;5066179;28;20929;-72
2023/01/13 10:49:21;;;;;;;24.95;7.22;;;7.50;99.90;;;;;;5074163;28;20139;-71
2023/01/13 10:51:47;;;;;;;34.28;8.25;;;7.60;99.90;;;;;;5075448;28;20128;-71
2023/01/13 10:54:22;;;;;;;37.70;7.53;;;7.60;99.90;;;;;;5066004;28;20123;-71
2023/01/13 10:56:48;;;;;;;34.25;7.97;;;7.60;99.90;;;;;;5066310;28;21324;-70
2023/01/13 10:59:21;;;;;;;34.60;8.52;;;7.60;99.90;;;;;;5066810;28;20036;-71
2023/01/13 11:02:09;;;;;;;37.60;11.25;;;7.60;99.90;;;;;;5068234;28;20092;-71
2023/01/13 11:04:36;;;;;;;35.75;10.82;;;7.60;99.90;;;;;;5052687;28;20044;-71
2023/01/13 11:07:05;;;;;;;49.10;13.15;;;7.60;99.90;;;;;;5059263;28;20128;-71
2023/01/13 11:09:30;;;;;;;;;;;7.60;99.90;;;;;;5053807;28;20056;-71
2023/01/13 11:11:58;;;;;;;29.40;9.40;;;7.70;99.90;;;;;;5058011;28;20345;-71
2023/01/13 11:14:41;;;;;;;37.83;8.50;;;7.60;99.90;;;;;;5065571;28;20037;-71
2023/01/13 11:17:34;;;;;;;32.53;8.23;;;7.60;99.90;;;;;;5060908;28;20067;-72
2023/01/13 11:20:31;;;;;;;34.97;7.85;;;7.60;99.90;;;;;;5060680;28;20381;-73
2023/01/13 11:23:21;;;;;;;34.67;7.78;;;7.70;99.90;;;;;;5071551;28;20059;-73
2023/01/13 11:25:53;;;;;;;36.00;7.78;;;7.60;99.90;;;;;;5073011;28;20139;-72
2023/01/13 11:28:32;;;;;;;37.15;8.35;;;7.70;99.90;;;;;;5068798;28;20055;-72
2023/01/13 11:31:11;;;;;;;31.83;8.43;;;7.60;99.90;;;;;;5054783;28;20094;-73
2023/01/13 11:33:40;;;;;;;45.97;9.27;;;7.70;99.90;;;;;;5055657;28;20569;-72
2023/01/13 11:36:36;;;;;;;32.22;7.88;;;7.70;99.90;;;;;;5052337;28;20056;-71
2023/01/13 11:39:46;;;;;;;41.13;8.45;;;7.70;99.90;;;;;;5064990;28;20105;-73
2023/01/13 11:42:36;;;;;;;34.72;7.75;;;7.70;99.90;;;;;;5061172;28;20052;-72
2023/01/13 11:45:05;;;;;;;42.28;8.52;;;7.70;99.90;;;;;;5057735;28;20421;-71
2023/01/13 11:47:37;;;;;;;40.72;7.97;;;7.70;99.90;;;;;;5070117;28;20113;-72
2023/01/13 11:50:24;;;;;;;28.67;7.45;;;7.80;99.90;;;;;;5065254;28;20046;-72
2023/01/13 11:53:38;;;;;;;34.40;9.70;;;7.70;99.90;;;;;;5082842;28;20109;-72
2023/01/13 11:56:31;;;;;;;32.25;7.70;;;7.80;99.90;;;;;;5046692;28;20040;-71
2023/01/13 11:59:16;;;;;;;20.90;6.35;;;7.80;99.90;;;;;;5061103;28;20083;-71
2023/01/13 12:02:14;;;;;;;31.20;7.85;;;7.70;99.90;;;;;;5079222;28;20048;-71
2023/01/13 12:05:03;;;;;;;30.63;7.15;;;7.80;99.90;;;;;;5081790;28;20051;-71
2023/01/13 12:07:41;;;;;;;37.13;7.85;;;7.80;99.90;;;;;;5080294;28;20420;-71
2023/01/13 12:10:27;;;;;;;28.83;7.97;;;7.80;99.90;;;;;;5086156;28;20489;-71
2023/01/13 12:13:09;;;;;;;31.73;7.38;;;7.80;99.90;;;;;;5074201;28;20052;-71
2023/01/13 12:15:41;;;;;;;34.55;7.20;;;7.80;99.90;;;;;;5069450;28;20056;-70
2023/01/13 12:18:31;;;;;;;25.05;6.55;;;7.80;99.90;;;;;;5071564;28;20067;-70
2023/01/13 12:21:20;;;;;;;36.00;7.82;;;7.80;99.90;;;;;;5072971;28;20051;-71
2023/01/13 12:24:11;;;;;;;27.77;7.05;;;7.80;99.90;;;;;;5065245;28;20051;-71
2023/01/13 12:26:43;;;;;;;24.63;7.07;;;7.80;99.90;;;;;;5071037;28;20048;-71
2023/01/13 12:29:17;;;;;;;21.75;5.68;;;7.90;99.90;;;;;;5068054;28;20040;-71
2023/01/13 12:31:48;;;;;;;27.50;6.45;;;7.90;99.90;;;;;;5061311;28;20049;-70
2023/01/13 12:34:38;;;;;;;27.50;5.75;;;7.90;99.90;;;;;;5057559;28;20048;-71
2023/01/13 12:37:28;;;;;;;23.92;6.13;;;7.90;99.90;;;;;;5069195;28;20032;-70
2023/01/13 12:40:25;;;;;;;28.73;6.25;;;8.00;99.90;;;;;;5065226;28;20429;-70
2023/01/13 12:46:19;;;;;;;20.58;5.88;;;8.00;99.90;;;;;;5062072;28;20088;-70
2023/01/13 12:48:55;;;;;;;21.55;6.47;;;8.00;99.90;;;;;;5065906;28;20060;-70
2023/01/13 12:51:32;;;;;;;21.80;5.55;;;8.10;99.90;;;;;;5067810;28;20052;-71
2023/01/13 12:53:59;;;;;;;33.70;7.93;;;8.10;99.90;;;;;;5058936;28;20052;-70
2023/01/13 12:56:31;;;;;;;17.88;5.93;;;8.10;99.90;;;;;;5063201;28;20143;-71
2023/01/13 12:59:16;;;;;;;21.77;5.45;;;8.10;99.90;;;;;;5068692;28;20062;-71
2023/01/13 13:01:43;;;;;;;27.80;5.70;;;8.10;99.90;;;;;;5074274;28;20101;-70
2023/01/13 13:04:16;;;;;;;18.90;5.20;;;8.10;99.90;;;;;;5083820;28;20058;-70
2023/01/13 13:06:49;;;;;;;28.30;6.63;;;8.10;99.90;;;;;;5068980;28;20055;-71
2023/01/13 13:09:31;;;;;;;23.30;5.25;;;8.10;99.90;;;;;;5068827;28;20048;-71
2023/01/13 13:14:41;;;;;;;28.98;6.72;;;8.20;99.90;;;;;;5060905;28;20128;-71
2023/01/13 13:17:29;;;;;;;30.25;6.85;;;8.20;99.90;;;;;;5072511;28;20047;-71
2023/01/13 13:19:55;;;;;;;21.25;5.28;;;8.20;99.90;;;;;;5066105;28;20192;-71
2023/01/13 13:22:27;;;;;;;25.38;6.53;;;8.20;99.90;;;;;;5061915;28;20060;-71
2023/01/13 13:24:56;;;;;;;15.80;4.72;;;8.20;99.90;;;;;;5054777;28;20053;-70
2023/01/13 13:27:41;;;;;;;18.33;5.97;;;8.20;99.90;;;;;;5066786;28;20045;-70
2023/01/13 13:30:13;;;;;;;13.93;6.05;;;8.20;99.90;;;;;;5067164;28;20170;-70
2023/01/13 13:33:00;;;;;;;11.48;4.78;;;8.20;99.90;;;;;;5060360;28;20067;-70
2023/01/13 13:36:01;;;;;;;23.70;5.72;;;8.20;99.90;;;;;;5063970;28;20107;-71
2023/01/13 13:47:22;;;;;;;21.60;4.97;;;8.20;99.90;;;;;;5066373;28;20604;-71
2023/01/13 13:49:53;;;;;;;19.92;4.50;;;8.20;99.90;;;;;;5067029;28;20135;-71
2023/01/13 13:52:41;;;;;;;17.17;4.90;;;8.20;99.90;;;;;;5077786;28;20036;-71
2023/01/13 13:55:17;;;;;;;10.93;4.13;;;8.30;99.90;;;;;;5055663;28;20059;-71
2023/01/13 13:57:51;;;;;;;15.60;3.92;;;8.30;99.90;;;;;;5062703;28;20142;-71
2023/01/13 14:00:20;;;;;;;13.48;4.50;;;8.20;99.90;;;;;;5064369;28;20528;-71
2023/01/13 14:02:50;;;;;;;18.52;5.38;;;8.30;99.90;;;;;;5067176;28;20102;-70
2023/01/13 14:05:26;;;;;;;18.70;4.05;;;8.30;99.90;;;;;;5064559;28;20520;-71
2023/01/13 14:08:21;;;;;;;23.10;5.47;;;8.40;99.90;;;;;;5075572;28;20167;-73
2023/01/13 14:10:47;;;;;;;19.40;4.47;;;8.30;99.90;;;;;;5063968;28;20060;-70
2023/01/13 14:13:27;;;;;;;17.33;4.57;;;8.40;99.90;;;;;;5065652;28;20130;-70
2023/01/13 14:16:09;;;;;;;9.10;4.55;;;8.40;99.90;;;;;;5084451;28;20057;-71
2023/01/13 14:18:46;;;;;;;17.88;5.63;;;8.40;99.90;;;;;;5060215;28;20044;-70